createdAt,value
2022-08-07T00:00:27.972Z,102428.50
2022-08-07T00:03:12.976Z,102431.34
2022-08-07T00:05:59.695Z,102434.06
2022-08-07T00:08:44.731Z,102431.94
2022-08-07T00:11:33.270Z,102416.19
2022-08-07T00:14:19.107Z,102426.81
2022-08-07T00:17:06.702Z,102422.75
2022-08-07T00:20:01.412Z,102416.34
2022-08-07T00:22:51.620Z,102429.25
2022-08-07T00:25:41.507Z,102432.16
2022-08-07T00:28:33.180Z,102426.69
2022-08-07T00:31:19.320Z,102405.53
2022-08-07T00:34:04.608Z,102422.13
2022-08-07T00:36:54.333Z,102420.66
2022-08-07T00:39:44.853Z,102416.41
2022-08-07T00:42:32.203Z,102394.34
2022-08-07T00:45:22.582Z,102417.44
2022-08-07T00:48:10.879Z,102401.47
2022-08-07T00:50:56.433Z,102421.22
2022-08-07T00:53:50.155Z,102410.94
2022-08-07T00:56:36.764Z,102412.91
2022-08-07T00:59:32.698Z,102408.34
2022-08-07T01:02:28.295Z,102391.44
2022-08-07T01:05:19.388Z,102404.44
2022-08-07T01:08:05.358Z,102408.00
2022-08-07T01:10:56.603Z,102407.53
2022-08-07T01:13:55.519Z,102395.91
2022-08-07T01:16:42.984Z,102401.06
2022-08-07T01:19:32.211Z,102404.38
2022-08-07T01:22:22.574Z,102387.56
2022-08-07T01:25:54.930Z,102378.31
2022-08-07T01:28:17.502Z,102384.19
2022-08-07T01:31:03.919Z,102389.94
2022-08-07T01:33:55.498Z,102390.91
2022-08-07T01:36:44.087Z,102389.53
2022-08-07T01:39:40.900Z,102394.31
2022-08-07T01:42:38.211Z,102389.03
2022-08-07T01:45:37.042Z,102384.00
2022-08-07T01:48:30.547Z,102382.41
2022-08-07T01:51:58.571Z,102366.41
2022-08-07T01:54:33.310Z,102379.69
2022-08-07T01:57:28.128Z,102370.63
2022-08-07T02:00:14.129Z,102388.00
2022-08-07T02:03:19.199Z,102388.31
2022-08-07T02:06:30.639Z,102388.78
2022-08-07T02:09:33.963Z,102397.19
2022-08-07T02:12:29.243Z,102396.41
2022-08-07T02:15:22.766Z,102393.41
2022-08-07T02:18:12.586Z,102396.13
2022-08-07T02:21:06.229Z,102394.50
2022-08-07T02:23:51.934Z,102396.19
2022-08-07T02:26:39.633Z,102381.75
2022-08-07T02:29:25.464Z,102377.38
2022-08-07T02:32:13.669Z,102390.81
2022-08-07T02:35:01.348Z,102360.03
2022-08-07T02:37:48.027Z,102383.09
2022-08-07T02:40:35.478Z,102374.25
2022-08-07T02:43:22.379Z,102370.06
2022-08-07T02:46:11.022Z,102366.97
2022-08-07T02:48:56.653Z,102374.75
2022-08-07T02:51:51.970Z,102363.00
2022-08-07T02:54:40.508Z,102361.19
2022-08-07T02:57:30.832Z,102378.06
2022-08-07T03:00:16.625Z,102375.50
2022-08-07T03:03:06.366Z,102372.34
2022-08-07T03:05:53.855Z,102366.38
2022-08-07T03:08:39.895Z,102371.88
2022-08-07T03:11:25.686Z,102353.31
2022-08-07T03:14:15.457Z,102349.91
2022-08-07T03:17:00.453Z,102365.25
2022-08-07T03:19:54.554Z,102364.38
2022-08-07T03:22:42.060Z,102369.09
2022-08-07T03:25:40.375Z,102369.94
2022-08-07T03:28:37.311Z,102375.25
2022-08-07T03:31:42.561Z,102372.72
2022-08-07T03:34:30.186Z,102364.91
2022-08-07T03:37:18.865Z,102362.44
2022-08-07T03:40:15.880Z,102361.03
2022-08-07T03:43:02.821Z,102348.41
2022-08-07T03:45:48.779Z,102369.06
2022-08-07T03:48:35.264Z,102370.00
2022-08-07T03:51:47.355Z,102366.91
2022-08-07T03:54:53.878Z,102369.16
2022-08-07T03:58:33.528Z,102368.38
2022-08-07T04:00:53.284Z,102368.38
2022-08-07T04:03:53.538Z,102363.19
2022-08-07T04:06:40.810Z,102356.41
2022-08-07T04:09:44.510Z,102365.28
2022-08-07T04:12:31.626Z,102326.19
2022-08-07T04:15:23.862Z,102368.22
2022-08-07T04:18:56.560Z,102365.56
2022-08-07T04:21:16.581Z,102376.16
2022-08-07T04:24:07.712Z,102363.06
2022-08-07T04:26:53.289Z,102363.22
2022-08-07T04:29:48.816Z,102361.53
2022-08-07T04:32:47.790Z,102363.31
2022-08-07T04:35:35.117Z,102355.59
2022-08-07T04:38:22.230Z,102339.31
2022-08-07T04:41:09.322Z,102338.06
2022-08-07T04:44:12.742Z,102357.63
2022-08-07T04:47:11.541Z,102356.16
2022-08-07T04:50:37.646Z,102358.09
2022-08-07T04:54:01.741Z,102360.97
2022-08-07T04:58:11.028Z,102369.91
2022-08-07T05:00:30.595Z,102375.88
2022-08-07T05:04:07.400Z,102371.06
2022-08-07T05:06:43.558Z,102375.66
2022-08-07T05:09:46.063Z,102375.56
2022-08-07T05:12:51.409Z,102385.03
2022-08-07T05:15:43.603Z,102364.31
2022-08-07T05:18:36.638Z,102389.63
2022-08-07T05:22:00.564Z,102392.41
2022-08-07T05:24:40.338Z,102395.44
2022-08-07T05:28:03.088Z,102386.81
2022-08-07T05:30:33.161Z,102396.16
2022-08-07T05:33:20.829Z,102385.56
2022-08-07T05:36:12.040Z,102399.19
2022-08-07T05:39:08.627Z,102397.31
2022-08-07T05:42:08.763Z,102397.16
2022-08-07T05:45:14.455Z,102394.88
2022-08-07T05:48:05.733Z,102404.97
2022-08-07T05:50:51.635Z,102393.84
2022-08-07T05:54:13.264Z,102405.19
2022-08-07T05:56:43.351Z,102400.91
2022-08-07T05:59:56.047Z,102408.19
2022-08-07T06:02:39.705Z,102409.63
2022-08-07T06:05:28.750Z,102399.53
2022-08-07T06:08:30.844Z,102422.34
2022-08-07T06:11:17.448Z,102410.59
2022-08-07T06:14:12.211Z,102420.34
2022-08-07T06:17:01.066Z,102420.75
2022-08-07T06:20:04.000Z,102419.75
2022-08-07T06:23:25.010Z,102411.47
2022-08-07T06:25:58.769Z,102411.13
2022-08-07T06:28:56.901Z,102412.22
2022-08-07T06:31:49.581Z,102418.31
2022-08-07T06:34:35.540Z,102406.25
2022-08-07T06:37:21.108Z,102407.19
2022-08-07T06:40:15.902Z,102417.06
2022-08-07T06:43:21.660Z,102422.69
2022-08-07T06:46:12.406Z,102426.94
2022-08-07T06:48:57.589Z,102423.75
2022-08-07T06:51:50.104Z,102429.97
2022-08-07T06:55:31.950Z,102432.72
2022-08-07T06:57:49.990Z,102430.34
2022-08-07T07:00:42.404Z,102402.06
2022-08-07T07:03:47.990Z,102412.25
2022-08-07T07:06:33.466Z,102412.94
2022-08-07T07:09:31.089Z,102426.81
2022-08-07T07:12:33.405Z,102419.94
2022-08-07T07:15:32.504Z,102412.22
2022-08-07T07:18:47.200Z,102407.19
2022-08-07T07:22:05.327Z,102414.53
2022-08-07T07:25:03.039Z,102418.16
2022-08-07T07:28:07.764Z,102416.84
2022-08-07T07:31:39.773Z,102417.44
2022-08-07T07:34:32.092Z,102419.75
2022-08-07T07:37:21.978Z,102421.69
2022-08-07T07:40:25.233Z,102417.69
2022-08-07T07:43:18.717Z,102411.66
2022-08-07T07:46:36.617Z,102414.75
2022-08-07T07:50:29.583Z,102395.56
2022-08-07T07:52:29.940Z,102413.56
2022-08-07T07:55:18.870Z,102417.81
2022-08-07T07:58:05.885Z,102410.28
2022-08-07T08:00:54.011Z,102420.00
2022-08-07T08:04:10.199Z,102419.00
2022-08-07T08:06:51.965Z,102419.31
2022-08-07T08:09:52.303Z,102418.19
2022-08-07T08:12:59.253Z,102378.19
2022-08-07T08:15:59.148Z,102411.78
2022-08-07T08:18:50.527Z,102404.69
2022-08-07T08:22:03.227Z,102397.84
2022-08-07T08:25:24.585Z,102400.97
2022-08-07T08:28:23.889Z,102396.88
2022-08-07T08:31:58.802Z,102393.09
2022-08-07T08:34:38.450Z,102390.91
2022-08-07T08:38:08.131Z,102383.53
2022-08-07T08:40:48.482Z,102371.34
2022-08-07T08:43:50.452Z,102386.91
2022-08-07T08:46:49.136Z,102389.28
2022-08-07T08:50:04.523Z,102389.34
2022-08-07T08:52:57.699Z,102386.63
2022-08-07T08:56:16.990Z,102386.81
2022-08-07T08:59:16.474Z,102387.38
2022-08-07T09:02:36.576Z,102379.31
2022-08-07T09:05:46.674Z,102385.50
2022-08-07T09:08:57.824Z,102379.53
2022-08-07T09:11:54.588Z,102371.56
2022-08-07T09:16:22.555Z,102369.44
2022-08-07T09:18:47.272Z,102378.41
2022-08-07T09:22:10.177Z,102370.31
2022-08-07T09:25:17.376Z,102362.56
2022-08-07T09:28:05.060Z,102367.72
2022-08-07T09:31:33.562Z,102368.59
2022-08-07T09:34:54.054Z,102357.56
2022-08-07T09:37:48.232Z,102358.03
2022-08-07T09:41:03.556Z,102355.78
2022-08-07T09:44:06.408Z,102341.19
2022-08-07T09:47:49.765Z,102351.84
2022-08-07T09:50:43.906Z,102341.31
2022-08-07T09:53:41.437Z,102343.44
2022-08-07T09:56:52.409Z,102349.22
2022-08-07T10:00:03.535Z,102344.56
2022-08-07T10:03:08.180Z,102331.47
2022-08-07T10:06:41.750Z,102334.38
2022-08-07T10:10:21.954Z,102327.91
2022-08-07T10:13:55.541Z,102321.84
2022-08-07T10:17:14.248Z,102315.47
2022-08-07T10:20:01.836Z,102299.97
2022-08-07T10:23:11.663Z,102315.81
2022-08-07T10:26:25.225Z,102273.75
2022-08-07T10:29:30.286Z,102313.19
2022-08-07T10:32:51.026Z,102309.28
2022-08-07T10:35:56.674Z,102311.69
2022-08-07T10:38:51.234Z,102308.56
2022-08-07T10:41:46.384Z,102312.22
2022-08-07T10:44:45.221Z,102302.13
2022-08-07T10:47:54.114Z,102294.09
2022-08-07T10:50:52.073Z,102298.81
2022-08-07T10:53:47.633Z,102297.38
2022-08-07T10:56:46.151Z,102281.06
2022-08-07T10:59:51.057Z,102288.09
2022-08-07T11:02:56.518Z,102273.38
2022-08-07T11:06:26.944Z,102281.69
2022-08-07T11:10:08.755Z,102259.28
2022-08-07T11:14:41.755Z,102276.56
2022-08-07T11:16:25.570Z,102275.13
2022-08-07T11:19:38.609Z,102267.75
2022-08-07T11:22:37.030Z,102268.44
2022-08-07T11:25:50.066Z,102264.06
2022-08-07T11:28:42.958Z,102257.22
2022-08-07T11:31:46.817Z,102259.03
2022-08-07T11:34:56.704Z,102251.16
2022-08-07T11:38:10.429Z,102247.09
2022-08-07T11:41:05.663Z,102241.53
2022-08-07T11:44:18.887Z,102236.59
2022-08-07T11:47:39.004Z,102237.22
2022-08-07T11:50:57.626Z,102236.78
2022-08-07T11:54:14.323Z,102227.09
2022-08-07T11:57:59.479Z,102227.47
2022-08-07T12:01:02.434Z,102216.59
2022-08-07T12:04:29.338Z,102212.56
2022-08-07T12:07:39.079Z,102199.22
2022-08-07T12:10:35.018Z,102199.66
2022-08-07T12:13:37.399Z,102209.47
2022-08-07T12:16:30.335Z,102201.91
2022-08-07T12:20:03.232Z,102201.44
2022-08-07T12:23:09.237Z,102200.34
2022-08-07T12:26:23.100Z,102191.59
2022-08-07T12:29:37.570Z,102203.28
2022-08-07T12:32:48.307Z,102191.38
2022-08-07T12:35:36.315Z,102186.19
2022-08-07T12:38:36.849Z,102183.78
2022-08-07T12:41:49.406Z,102190.94
2022-08-07T12:44:38.615Z,102186.25
2022-08-07T12:48:28.242Z,102186.41
2022-08-07T12:51:20.633Z,102184.41
2022-08-07T12:54:38.346Z,102186.47
2022-08-07T12:57:38.755Z,102177.28
2022-08-07T13:00:57.238Z,102176.34
2022-08-07T13:04:31.658Z,102167.53
2022-08-07T13:08:14.077Z,102171.84
2022-08-07T13:10:59.950Z,102157.28
2022-08-07T13:14:03.289Z,102163.34
2022-08-07T13:17:00.935Z,102169.88
2022-08-07T13:20:00.864Z,102165.34
2022-08-07T13:23:59.874Z,102164.91
2022-08-07T13:26:26.434Z,102159.72
2022-08-07T13:29:16.932Z,102152.44
2022-08-07T13:32:31.324Z,102149.50
2022-08-07T13:35:21.428Z,102147.22
2022-08-07T13:38:15.663Z,102145.56
2022-08-07T13:41:27.912Z,102137.84
2022-08-07T13:44:25.882Z,102143.00
2022-08-07T13:47:15.762Z,102134.88
2022-08-07T13:50:33.935Z,102131.03
2022-08-07T13:53:21.774Z,102130.16
2022-08-07T13:56:09.931Z,102126.38
2022-08-07T13:59:02.511Z,102124.41
2022-08-07T14:02:05.277Z,102125.78
2022-08-07T14:04:55.008Z,102121.22
2022-08-07T14:08:00.434Z,102115.78
2022-08-07T14:11:14.438Z,102126.84
2022-08-07T14:14:09.318Z,102107.72
2022-08-07T14:16:59.945Z,102120.38
2022-08-07T14:20:43.189Z,102113.31
2022-08-07T14:23:31.471Z,102099.72
2022-08-07T14:26:40.950Z,102108.69
2022-08-07T14:30:07.638Z,102104.97
2022-08-07T14:32:58.146Z,102098.56
2022-08-07T14:35:47.664Z,102090.72
2022-08-07T14:38:34.470Z,102082.03
2022-08-07T14:41:34.220Z,102099.69
2022-08-07T14:44:33.385Z,102100.06
2022-08-07T14:47:20.430Z,102095.16
2022-08-07T14:54:03.679Z,102091.78
2022-08-07T14:56:29.897Z,102079.41
2022-08-07T15:00:03.452Z,102097.28
2022-08-07T15:02:34.224Z,102088.22
2022-08-07T15:05:23.470Z,102083.84
2022-08-07T15:08:12.577Z,102082.28
2022-08-07T15:11:14.983Z,102093.19
2022-08-07T15:14:10.001Z,102081.72
2022-08-07T15:17:02.651Z,102068.44
2022-08-07T15:20:30.640Z,102060.84
2022-08-07T15:23:17.120Z,102072.47
2022-08-07T15:26:08.950Z,102061.09
2022-08-07T15:30:03.719Z,102061.97
2022-08-07T15:35:19.427Z,102057.28
2022-08-07T15:38:31.005Z,102053.28
2022-08-07T15:45:09.525Z,102057.78
2022-08-07T15:48:08.033Z,102040.44
2022-08-07T15:54:13.900Z,102042.28
2022-08-07T15:57:00.784Z,102033.94
2022-08-07T15:59:46.499Z,102035.16
2022-08-07T16:02:46.789Z,102027.03
2022-08-07T16:05:34.393Z,102027.69
2022-08-07T16:08:31.704Z,102026.56
2022-08-07T16:11:41.518Z,102020.28
2022-08-07T16:14:48.630Z,102018.50
2022-08-07T16:18:04.763Z,102020.59
2022-08-07T16:21:53.752Z,102010.25
2022-08-07T16:24:33.795Z,102010.41
2022-08-07T16:27:41.656Z,102013.03
2022-08-07T16:30:34.265Z,102012.38
2022-08-07T16:34:01.834Z,102030.59
2022-08-07T16:38:04.118Z,102018.78
2022-08-07T16:40:32.097Z,102008.56
2022-08-07T16:44:06.302Z,102018.81
2022-08-07T16:47:17.886Z,102016.25
2022-08-07T16:50:39.322Z,102018.56
2022-08-07T16:53:55.567Z,102011.41
2022-08-07T16:56:54.572Z,102008.81
2022-08-07T16:59:51.125Z,102006.66
2022-08-07T17:03:04.986Z,102005.69
2022-08-07T17:06:28.618Z,102004.97
2022-08-07T17:10:06.974Z,102009.44
2022-08-07T17:12:53.246Z,101989.34
2022-08-07T17:15:50.666Z,102007.66
2022-08-07T17:18:37.186Z,101985.47
2022-08-07T17:21:26.532Z,102003.09
2022-08-07T17:24:14.402Z,102001.59
2022-08-07T17:27:19.673Z,101997.13
2022-08-07T17:30:15.158Z,101997.19
2022-08-07T17:34:09.529Z,101993.56
2022-08-07T17:36:57.883Z,102005.59
2022-08-07T17:40:08.103Z,102006.56
2022-08-07T17:43:03.462Z,102002.28
2022-08-07T17:46:15.877Z,102007.59
2022-08-07T17:49:13.976Z,101995.75
2022-08-07T17:52:19.489Z,102008.16
2022-08-07T17:55:59.968Z,102009.88
2022-08-07T17:58:50.123Z,101997.13
2022-08-07T18:01:40.377Z,102010.88
2022-08-07T18:04:51.785Z,102010.53
2022-08-07T18:07:37.388Z,102006.22
2022-08-07T18:10:37.882Z,102005.19
2022-08-07T18:13:51.272Z,102006.38
2022-08-07T18:16:58.015Z,101996.94
2022-08-07T18:21:12.395Z,102007.16
2022-08-07T18:23:02.007Z,102015.19
2022-08-07T18:26:00.941Z,102021.00
2022-08-07T18:30:04.468Z,102024.19
2022-08-07T18:32:39.202Z,102031.69
2022-08-07T18:36:06.014Z,102025.13
2022-08-07T18:40:09.007Z,102035.41
2022-08-07T18:42:39.596Z,102027.34
2022-08-07T18:46:21.731Z,102032.66
2022-08-07T18:50:31.210Z,102031.78
2022-08-07T18:52:34.907Z,102038.53
2022-08-07T18:55:43.436Z,102037.81
2022-08-07T18:58:52.914Z,102016.28
2022-08-07T19:02:18.230Z,102045.69
2022-08-07T19:06:03.906Z,102046.28
2022-08-07T19:08:58.550Z,102051.75
2022-08-07T19:12:04.548Z,102051.97
2022-08-07T19:14:59.491Z,102065.50
2022-08-07T19:18:04.085Z,102075.50
2022-08-07T19:21:51.246Z,102071.91
2022-08-07T19:24:50.015Z,102060.50
2022-08-07T19:28:29.232Z,102079.59
2022-08-07T19:30:58.340Z,102080.53
2022-08-07T19:33:56.430Z,102085.38
2022-08-07T19:36:51.802Z,102088.19
2022-08-07T19:39:57.855Z,102089.59
2022-08-07T19:42:49.050Z,102093.56
2022-08-07T19:46:06.306Z,102096.53
2022-08-07T19:48:55.898Z,102103.75
2022-08-07T19:51:52.863Z,102104.94
2022-08-07T19:54:56.694Z,102100.19
2022-08-07T19:58:01.821Z,102101.22
2022-08-07T20:00:56.572Z,102089.44
2022-08-07T20:03:42.412Z,102108.81
2022-08-07T20:06:31.715Z,102101.09
2022-08-07T20:10:35.351Z,102111.06
2022-08-07T20:12:34.374Z,102121.63
2022-08-07T20:15:32.967Z,102113.03
2022-08-07T20:18:32.866Z,102116.28
2022-08-07T20:21:21.787Z,102118.69
2022-08-07T20:24:16.679Z,102124.88
2022-08-07T20:27:09.116Z,102101.88
2022-08-07T20:30:00.330Z,102114.06
2022-08-07T20:32:47.600Z,102127.41
2022-08-07T20:35:51.982Z,102139.59
2022-08-07T20:38:59.453Z,102138.47
2022-08-07T20:41:48.630Z,102128.94
2022-08-07T20:44:38.135Z,102128.38
2022-08-07T20:47:25.961Z,102139.69
2022-08-07T20:50:32.198Z,102144.19
2022-08-07T20:53:17.381Z,102142.78
2022-08-07T20:56:12.314Z,102145.97
2022-08-07T20:59:03.492Z,102149.47
2022-08-07T21:01:55.335Z,102135.00
2022-08-07T21:04:43.952Z,102150.09
2022-08-07T21:07:34.051Z,102152.59
2022-08-07T21:10:25.130Z,102153.59
2022-08-07T21:13:24.623Z,102142.06
2022-08-07T21:16:30.300Z,102152.59
2022-08-07T21:19:17.133Z,102136.13
2022-08-07T21:22:07.284Z,102155.84
2022-08-07T21:25:12.008Z,102153.16
2022-08-07T21:28:18.810Z,102145.19
2022-08-07T21:32:42.112Z,102151.78
2022-08-07T21:34:55.911Z,102159.38
2022-08-07T21:38:06.412Z,102174.59
2022-08-07T21:41:11.201Z,102166.16
2022-08-07T21:44:14.719Z,102162.78
2022-08-07T21:47:20.400Z,102167.00
2022-08-07T21:50:22.298Z,102170.81
2022-08-07T21:53:24.387Z,102171.53
2022-08-07T21:56:35.895Z,102173.63
2022-08-07T22:00:03.992Z,102178.59
2022-08-07T22:03:17.101Z,102172.06
2022-08-07T22:06:30.583Z,102164.63
2022-08-07T22:09:25.162Z,102173.94
2022-08-07T22:12:15.583Z,102182.66
2022-08-07T22:16:39.391Z,102162.72
2022-08-07T22:18:41.963Z,102188.22
2022-08-07T22:22:04.763Z,102201.38
2022-08-07T22:24:51.974Z,102194.41
2022-08-07T22:28:20.238Z,102191.25
2022-08-07T22:31:59.129Z,102207.41
2022-08-07T22:34:53.651Z,102219.22
2022-08-07T22:38:03.285Z,102215.34
2022-08-07T22:41:09.047Z,102226.59
2022-08-07T22:43:58.691Z,102225.94
2022-08-07T22:47:08.917Z,102231.84
2022-08-07T22:50:20.929Z,102234.03
2022-08-07T22:54:08.235Z,102201.38
2022-08-07T22:57:16.832Z,102230.69
2022-08-07T23:00:28.634Z,102226.69
2022-08-07T23:03:57.271Z,102232.00
2022-08-07T23:07:25.802Z,102236.53
2022-08-07T23:10:38.128Z,102228.91
2022-08-07T23:14:16.235Z,102218.38
2022-08-07T23:17:15.502Z,102210.53
2022-08-07T23:20:51.933Z,102194.72
2022-08-07T23:24:07.025Z,102239.47
2022-08-07T23:27:10.823Z,102217.69
2022-08-07T23:30:39.682Z,102226.97
2022-08-07T23:34:22.601Z,102244.16
2022-08-07T23:37:20.330Z,102246.06
2022-08-07T23:40:31.324Z,102250.00
2022-08-07T23:43:25.444Z,102245.03
2022-08-07T23:46:59.329Z,102247.19
2022-08-07T23:50:16.384Z,102243.16
2022-08-07T23:53:17.325Z,102223.78
2022-08-07T23:56:28.895Z,102245.19
